Agios Rafael — SY3540 — position and weather

sailwx.info

Track history (hours):
 
Tides and Currents Weather Stations Pressure Air Temp Water Temp Dewpoint Dewpoint Depression Visibility Wind Speed Wind Dir Waves Ship Positions

Agios Rafael

Last reported at 2017-Oct-15 18:53 UTC. Time now 2017-Oct-20 12:25 UTC.
Position N 39°52' E 025°41'.

Type: Cargo ship. MMSI: 237621300.

Date/timePositionNaut miles runAvg speedWind from/ knotsBaromVisibWave heightAir tempDewpointWater temp
2017-Oct-15 18:53N 39°52' E 025°41'14 9.1
2017-Oct-15 17:20N 40°06' E 025°36'3 9.3
2017-Oct-15 17:00N 40°08' E 025°34'5 9.4
2017-Oct-15 16:30N 40°13' E 025°32'4 9.0
2017-Oct-15 16:00N 40°17' E 025°29'4 9.0
2017-Oct-15 15:30N 40°21' E 025°27'5 9.0
2017-Oct-15 14:59N 40°25' E 025°25'9 9.2
2017-Oct-15 14:00N 40°34' E 025°20'5 9.2
2017-Oct-15 13:30N 40°38' E 025°17'5 9.1
2017-Oct-15 13:00N 40°42' E 025°15'4 9.1
2017-Oct-15 12:30N 40°46' E 025°12'5 9.0
2017-Oct-15 12:00N 40°50' E 025°10'4 9.0
2017-Oct-15 11:30N 40°54' E 025°06'4 8.3
2017-Oct-15 11:00N 40°58' E 025°05'3 5.3
2017-Oct-15 10:26N 41°00' E 025°07'0 0.0
2017-Oct-15 10:00N 41°00' E 025°07'0 0.0
2017-Oct-15 09:30N 41°00' E 025°07'0 0.0
2017-Oct-15 09:00N 41°00' E 025°07'0 0.0
2017-Oct-15 08:28N 41°00' E 025°07'0 0.0
2017-Oct-15 08:00N 41°00' E 025°07'0 0.0
2017-Oct-15 07:28N 41°00' E 025°07'0 0.0
2017-Oct-15 07:00N 41°00' E 025°07'0 0.0
2017-Oct-15 06:29N 41°00' E 025°07'0 0.0
2017-Oct-15 06:00N 41°00' E 025°07'0 0.0
2017-Oct-15 05:30N 41°00' E 025°07'0 0.0
2017-Oct-15 05:00N 41°00' E 025°07'0 0.0
2017-Oct-15 04:30N 41°00' E 025°07'0 0.0
2017-Oct-15 04:00N 41°00' E 025°07'0 0.0
2017-Oct-15 03:29N 41°00' E 025°07'0 0.0
2017-Oct-15 02:59N 41°00' E 025°07'0 0.0
2017-Oct-15 02:26N 41°00' E 025°07'0 0.0
2017-Oct-15 02:00N 41°00' E 025°07'0 0.0
2017-Oct-15 01:28N 41°00' E 025°07'0 0.0
2017-Oct-15 01:00N 41°00' E 025°07'0 0.0
2017-Oct-15 00:30N 41°00' E 025°07'0 0.0
2017-Oct-14 22:59N 41°00' E 025°07'0 0.0
2017-Oct-14 22:30N 41°00' E 025°07'0 0.0
2017-Oct-14 21:56N 41°00' E 025°07'0 0.0
2017-Oct-14 21:29N 41°00' E 025°07'0 0.0
2017-Oct-14 21:00N 41°00' E 025°07'0 0.0
2017-Oct-14 20:30N 41°00' E 025°07'0 0.0
2017-Oct-14 19:54N 41°00' E 025°07'0 0.0
2017-Oct-14 19:27N 41°00' E 025°07'0 0.0
2017-Oct-14 19:00N 41°00' E 025°07'0 0.0
2017-Oct-14 18:29N 41°00' E 025°07'0 0.0
2017-Oct-14 17:54N 41°00' E 025°07'0 0.0
2017-Oct-14 17:27N 41°00' E 025°07'0 0.0
2017-Oct-14 17:00N 41°00' E 025°07'0 0.0
2017-Oct-14 16:30N 41°00' E 025°07'0 0.0
2017-Oct-14 15:38N 41°00' E 025°07'0 0.0
2017-Oct-14 15:30N 41°00' E 025°07'0 0.0
2017-Oct-14 14:57N 41°00' E 025°07'0 0.0
2017-Oct-14 14:29N 41°00' E 025°07'0 0.0
2017-Oct-14 13:58N 41°00' E 025°07'0 0.0
2017-Oct-14 13:30N 41°00' E 025°07'0 0.0
2017-Oct-14 13:00N 41°00' E 025°07'0 0.0
2017-Oct-14 12:30N 41°00' E 025°07'0 0.0
2017-Oct-14 12:00N 41°00' E 025°07'0 0.0
2017-Oct-14 11:30N 41°00' E 025°07'0 0.0
2017-Oct-14 11:00N 41°00' E 025°07'0 0.0
2017-Oct-14 10:30N 41°00' E 025°07'0 0.0
2017-Oct-14 10:00N 41°00' E 025°07'0 0.0
2017-Oct-14 09:26N 41°00' E 025°07'0 0.0
2017-Oct-14 08:59N 41°00' E 025°07'0 0.0
2017-Oct-14 08:06N 41°00' E 025°07'0 0.0
2017-Oct-14 08:00N 41°00' E 025°07'0 0.0
2017-Oct-14 07:30N 41°00' E 025°07'0 0.0
2017-Oct-14 07:00N 41°00' E 025°07'0 0.0
2017-Oct-14 06:29N 41°00' E 025°07'0 0.0
2017-Oct-14 06:00N 41°00' E 025°07'0 0.0
2017-Oct-14 05:30N 41°00' E 025°07'0 0.0
2017-Oct-14 05:00N 41°00' E 025°07'0 0.5
2017-Oct-14 04:22N 41°00' E 025°08'2 4.4
2017-Oct-14 04:00N 40°59' E 025°06'0 0.0
2017-Oct-14 03:30N 40°59' E 025°06'0 0.1
2017-Oct-14 02:50N 40°59' E 025°06'0 0.1
2017-Oct-14 02:29N 40°59' E 025°06'0 0.1
2017-Oct-14 02:00N 40°59' E 025°06'0 0.0
2017-Oct-14 01:30N 40°59' E 025°06'0 0.0
2017-Oct-14 00:55N 40°59' E 025°06'0 0.0
2017-Oct-14 00:30N 40°59' E 025°06'0 0.0
2017-Oct-14 00:00N 40°59' E 025°06'0 0.0
2017-Oct-13 23:30N 40°59' E 025°06'3 6.5
2017-Oct-13 22:59N 40°56' E 025°05'5 9.8
2017-Oct-13 22:30N 40°51' E 025°02'510.0
2017-Oct-13 22:00N 40°47' E 024°59'710.2
2017-Oct-13 21:22N 40°42' E 024°54'410.1
2017-Oct-13 21:00N 40°39' E 024°52'9 9.5
2017-Oct-13 20:06N 40°31' E 024°47'1 9.8
2017-Oct-13 20:00N 40°30' E 024°46'6 9.7
2017-Oct-13 19:26N 40°25' E 024°42'510.3
2017-Oct-13 18:58N 40°21' E 024°39'510.6
2017-Oct-13 18:29N 40°17' E 024°35'510.3
2017-Oct-13 18:00N 40°13' E 024°31'510.0
2017-Oct-13 17:30N 40°09' E 024°27'8 9.1
2017-Oct-13 16:34N 40°07' E 024°16'7 0.5
2017-Oct-13 03:05N 40°12' E 024°10'0 0.2
2017-Oct-13 03:00N 40°12' E 024°10'0 0.4
2017-Oct-13 02:18N 40°12' E 024°10'10 7.5
2017-Oct-13 01:02N 40°03' E 024°06'1 9.5
2017-Oct-13 00:55N 40°02' E 024°05'6 9.4
2017-Oct-13 00:15N 39°56' E 024°01'3 8.7
2017-Oct-12 23:51N 39°54' E 023°58'  
2017-Oct-09 01:24N 40°09' E 025°31'3 7.9
2017-Oct-09 01:00N 40°11' E 025°28'15 7.7
2017-Oct-08 23:01N 40°22' E 025°15'0 7.3
2017-Oct-08 23:00N 40°22' E 025°14'14 8.3
2017-Oct-08 21:19N 40°34' E 025°04'3 9.1
2017-Oct-08 21:00N 40°36' E 025°01'5 9.3
2017-Oct-08 20:30N 40°39' E 024°57'5 9.5
2017-Oct-08 20:00N 40°43' E 024°53'5 9.9
2017-Oct-08 19:30N 40°46' E 024°49'5 9.5
2017-Oct-08 19:00N 40°50' E 024°44'3 5.2
2017-Oct-08 18:30N 40°52' E 024°42'0 0.6
2017-Oct-08 18:00N 40°51' E 024°42'0 0.0
2017-Oct-08 17:30N 40°51' E 024°42'0 0.0
2017-Oct-08 17:00N 40°51' E 024°42'0 0.0
2017-Oct-08 16:30N 40°51' E 024°42'0 0.0
2017-Oct-08 16:00N 40°51' E 024°42'0 0.0
2017-Oct-08 15:30N 40°51' E 024°42'0 0.0
2017-Oct-08 15:00N 40°51' E 024°42'0 0.0
2017-Oct-08 14:30N 40°51' E 024°42'0 0.0
2017-Oct-08 14:00N 40°51' E 024°42'0 0.0
2017-Oct-08 13:30N 40°51' E 024°42'0 0.0
2017-Oct-08 13:00N 40°51' E 024°42'0 0.0
2017-Oct-08 12:30N 40°51' E 024°42'0 0.0
2017-Oct-08 12:00N 40°51' E 024°42'0 0.0
2017-Oct-08 11:30N 40°51' E 024°42'0 0.0
2017-Oct-08 11:00N 40°51' E 024°42'0 0.0
2017-Oct-08 10:30N 40°51' E 024°42'0 0.0
2017-Oct-08 10:00N 40°51' E 024°42'0 0.0
2017-Oct-08 09:30N 40°51' E 024°42'0 0.0
2017-Oct-08 09:00N 40°51' E 024°42'0 0.0
2017-Oct-08 08:30N 40°51' E 024°42'0 0.0
2017-Oct-08 08:00N 40°51' E 024°42'0 0.0
2017-Oct-08 07:30N 40°51' E 024°42'0 0.0
2017-Oct-08 07:00N 40°51' E 024°42'  
2017-Oct-06 02:38N 39°56' E 025°41'1 8.2
2017-Oct-06 02:30N 39°57' E 025°41'6 8.1
2017-Oct-06 01:47N 40°02' E 025°37'2 8.4
2017-Oct-06 01:30N 40°04' E 025°35'4 8.2
2017-Oct-06 01:00N 40°07' E 025°32'4 8.3
2017-Oct-06 00:30N 40°10' E 025°28'4 8.6
2017-Oct-05 23:59N 40°13' E 025°24'4 8.7
2017-Oct-05 23:30N 40°17' E 025°21'5 9.2
2017-Oct-05 23:00N 40°20' E 025°17'5 9.1
2017-Oct-05 22:30N 40°24' E 025°13'4 9.0
2017-Oct-05 22:00N 40°27' E 025°09'4 8.9
2017-Oct-05 21:30N 40°30' E 025°05'5 9.4
2017-Oct-05 21:00N 40°34' E 025°01'5 9.4
2017-Oct-05 20:30N 40°37' E 024°57'510.0
2017-Oct-05 20:00N 40°41' E 024°53'510.1
2017-Oct-05 19:30N 40°45' E 024°49'510.0
2017-Oct-05 19:00N 40°49' E 024°45'  
Track history (hours):
 
Tides and Currents Weather Stations Pressure Air Temp Water Temp Dewpoint Dewpoint Depression Visibility Wind Speed Wind Dir Waves Ship Positions

Agios Rafael

Last reported at 2017-Oct-15 18:53 UTC. Time now 2017-Oct-20 12:25 UTC.
Position N 39°52' E 025°41'.

Type: Cargo ship. MMSI: 237621300.

Date/timePositionNaut miles runAvg speedWind from/ knotsBaromVisibWave heightAir tempDewpointWater temp
2017-Oct-15 18:53N 39°52' E 025°41'14 9.1
2017-Oct-15 17:20N 40°06' E 025°36'3 9.3
2017-Oct-15 17:00N 40°08' E 025°34'5 9.4
2017-Oct-15 16:30N 40°13' E 025°32'4 9.0
2017-Oct-15 16:00N 40°17' E 025°29'4 9.0
2017-Oct-15 15:30N 40°21' E 025°27'5 9.0
2017-Oct-15 14:59N 40°25' E 025°25'9 9.2
2017-Oct-15 14:00N 40°34' E 025°20'5 9.2
2017-Oct-15 13:30N 40°38' E 025°17'5 9.1
2017-Oct-15 13:00N 40°42' E 025°15'4 9.1
2017-Oct-15 12:30N 40°46' E 025°12'5 9.0
2017-Oct-15 12:00N 40°50' E 025°10'4 9.0
2017-Oct-15 11:30N 40°54' E 025°06'4 8.3
2017-Oct-15 11:00N 40°58' E 025°05'3 5.3
2017-Oct-15 10:26N 41°00' E 025°07'0 0.0
2017-Oct-15 10:00N 41°00' E 025°07'0 0.0
2017-Oct-15 09:30N 41°00' E 025°07'0 0.0
2017-Oct-15 09:00N 41°00' E 025°07'0 0.0
2017-Oct-15 08:28N 41°00' E 025°07'0 0.0
2017-Oct-15 08:00N 41°00' E 025°07'0 0.0
2017-Oct-15 07:28N 41°00' E 025°07'0 0.0
2017-Oct-15 07:00N 41°00' E 025°07'0 0.0
2017-Oct-15 06:29N 41°00' E 025°07'0 0.0
2017-Oct-15 06:00N 41°00' E 025°07'0 0.0
2017-Oct-15 05:30N 41°00' E 025°07'0 0.0
2017-Oct-15 05:00N 41°00' E 025°07'0 0.0
2017-Oct-15 04:30N 41°00' E 025°07'0 0.0
2017-Oct-15 04:00N 41°00' E 025°07'0 0.0
2017-Oct-15 03:29N 41°00' E 025°07'0 0.0
2017-Oct-15 02:59N 41°00' E 025°07'0 0.0
2017-Oct-15 02:26N 41°00' E 025°07'0 0.0
2017-Oct-15 02:00N 41°00' E 025°07'0 0.0
2017-Oct-15 01:28N 41°00' E 025°07'0 0.0
2017-Oct-15 01:00N 41°00' E 025°07'0 0.0
2017-Oct-15 00:30N 41°00' E 025°07'0 0.0
2017-Oct-14 22:59N 41°00' E 025°07'0 0.0
2017-Oct-14 22:30N 41°00' E 025°07'0 0.0
2017-Oct-14 21:56N 41°00' E 025°07'0 0.0
2017-Oct-14 21:29N 41°00' E 025°07'0 0.0
2017-Oct-14 21:00N 41°00' E 025°07'0 0.0
2017-Oct-14 20:30N 41°00' E 025°07'0 0.0
2017-Oct-14 19:54N 41°00' E 025°07'0 0.0
2017-Oct-14 19:27N 41°00' E 025°07'0 0.0
2017-Oct-14 19:00N 41°00' E 025°07'0 0.0
2017-Oct-14 18:29N 41°00' E 025°07'0 0.0
2017-Oct-14 17:54N 41°00' E 025°07'0 0.0
2017-Oct-14 17:27N 41°00' E 025°07'0 0.0
2017-Oct-14 17:00N 41°00' E 025°07'0 0.0
2017-Oct-14 16:30N 41°00' E 025°07'0 0.0
2017-Oct-14 15:38N 41°00' E 025°07'0 0.0
2017-Oct-14 15:30N 41°00' E 025°07'0 0.0
2017-Oct-14 14:57N 41°00' E 025°07'0 0.0
2017-Oct-14 14:29N 41°00' E 025°07'0 0.0
2017-Oct-14 13:58N 41°00' E 025°07'0 0.0
2017-Oct-14 13:30N 41°00' E 025°07'0 0.0
2017-Oct-14 13:00N 41°00' E 025°07'0 0.0
2017-Oct-14 12:30N 41°00' E 025°07'0 0.0
2017-Oct-14 12:00N 41°00' E 025°07'0 0.0
2017-Oct-14 11:30N 41°00' E 025°07'0 0.0
2017-Oct-14 11:00N 41°00' E 025°07'0 0.0
2017-Oct-14 10:30N 41°00' E 025°07'0 0.0
2017-Oct-14 10:00N 41°00' E 025°07'0 0.0
2017-Oct-14 09:26N 41°00' E 025°07'0 0.0
2017-Oct-14 08:59N 41°00' E 025°07'0 0.0
2017-Oct-14 08:06N 41°00' E 025°07'0 0.0
2017-Oct-14 08:00N 41°00' E 025°07'0 0.0
2017-Oct-14 07:30N 41°00' E 025°07'0 0.0
2017-Oct-14 07:00N 41°00' E 025°07'0 0.0
2017-Oct-14 06:29N 41°00' E 025°07'0 0.0
2017-Oct-14 06:00N 41°00' E 025°07'0 0.0
2017-Oct-14 05:30N 41°00' E 025°07'0 0.0
2017-Oct-14 05:00N 41°00' E 025°07'0 0.5
2017-Oct-14 04:22N 41°00' E 025°08'2 4.4
2017-Oct-14 04:00N 40°59' E 025°06'0 0.0
2017-Oct-14 03:30N 40°59' E 025°06'0 0.1
2017-Oct-14 02:50N 40°59' E 025°06'0 0.1
2017-Oct-14 02:29N 40°59' E 025°06'0 0.1
2017-Oct-14 02:00N 40°59' E 025°06'0 0.0
2017-Oct-14 01:30N 40°59' E 025°06'0 0.0
2017-Oct-14 00:55N 40°59' E 025°06'0 0.0
2017-Oct-14 00:30N 40°59' E 025°06'0 0.0
2017-Oct-14 00:00N 40°59' E 025°06'0 0.0
2017-Oct-13 23:30N 40°59' E 025°06'3 6.5
2017-Oct-13 22:59N 40°56' E 025°05'5 9.8
2017-Oct-13 22:30N 40°51' E 025°02'510.0
2017-Oct-13 22:00N 40°47' E 024°59'710.2
2017-Oct-13 21:22N 40°42' E 024°54'410.1
2017-Oct-13 21:00N 40°39' E 024°52'9 9.5
2017-Oct-13 20:06N 40°31' E 024°47'1 9.8
2017-Oct-13 20:00N 40°30' E 024°46'6 9.7
2017-Oct-13 19:26N 40°25' E 024°42'510.3
2017-Oct-13 18:58N 40°21' E 024°39'510.6
2017-Oct-13 18:29N 40°17' E 024°35'510.3
2017-Oct-13 18:00N 40°13' E 024°31'510.0
2017-Oct-13 17:30N 40°09' E 024°27'8 9.1
2017-Oct-13 16:34N 40°07' E 024°16'7 0.5
2017-Oct-13 03:05N 40°12' E 024°10'0 0.2
2017-Oct-13 03:00N 40°12' E 024°10'0 0.4
2017-Oct-13 02:18N 40°12' E 024°10'10 7.5
2017-Oct-13 01:02N 40°03' E 024°06'1 9.5
2017-Oct-13 00:55N 40°02' E 024°05'6 9.4
2017-Oct-13 00:15N 39°56' E 024°01'3 8.7
2017-Oct-12 23:51N 39°54' E 023°58'  
2017-Oct-09 01:24N 40°09' E 025°31'3 7.9
2017-Oct-09 01:00N 40°11' E 025°28'15 7.7
2017-Oct-08 23:01N 40°22' E 025°15'0 7.3
2017-Oct-08 23:00N 40°22' E 025°14'14 8.3
2017-Oct-08 21:19N 40°34' E 025°04'3 9.1
2017-Oct-08 21:00N 40°36' E 025°01'5 9.3
2017-Oct-08 20:30N 40°39' E 024°57'5 9.5
2017-Oct-08 20:00N 40°43' E 024°53'5 9.9
2017-Oct-08 19:30N 40°46' E 024°49'5 9.5
2017-Oct-08 19:00N 40°50' E 024°44'3 5.2
2017-Oct-08 18:30N 40°52' E 024°42'0 0.6
2017-Oct-08 18:00N 40°51' E 024°42'0 0.0
2017-Oct-08 17:30N 40°51' E 024°42'0 0.0
2017-Oct-08 17:00N 40°51' E 024°42'0 0.0
2017-Oct-08 16:30N 40°51' E 024°42'0 0.0
2017-Oct-08 16:00N 40°51' E 024°42'0 0.0
2017-Oct-08 15:30N 40°51' E 024°42'0 0.0
2017-Oct-08 15:00N 40°51' E 024°42'0 0.0
2017-Oct-08 14:30N 40°51' E 024°42'0 0.0
2017-Oct-08 14:00N 40°51' E 024°42'0 0.0
2017-Oct-08 13:30N 40°51' E 024°42'0 0.0
2017-Oct-08 13:00N 40°51' E 024°42'0 0.0
2017-Oct-08 12:30N 40°51' E 024°42'0 0.0
2017-Oct-08 12:00N 40°51' E 024°42'0 0.0
2017-Oct-08 11:30N 40°51' E 024°42'0 0.0
2017-Oct-08 11:00N 40°51' E 024°42'0 0.0
2017-Oct-08 10:30N 40°51' E 024°42'0 0.0
2017-Oct-08 10:00N 40°51' E 024°42'0 0.0
2017-Oct-08 09:30N 40°51' E 024°42'0 0.0
2017-Oct-08 09:00N 40°51' E 024°42'0 0.0
2017-Oct-08 08:30N 40°51' E 024°42'0 0.0
2017-Oct-08 08:00N 40°51' E 024°42'0 0.0
2017-Oct-08 07:30N 40°51' E 024°42'0 0.0
2017-Oct-08 07:00N 40°51' E 024°42'  
2017-Oct-06 02:38N 39°56' E 025°41'1 8.2
2017-Oct-06 02:30N 39°57' E 025°41'6 8.1
2017-Oct-06 01:47N 40°02' E 025°37'2 8.4
2017-Oct-06 01:30N 40°04' E 025°35'4 8.2
2017-Oct-06 01:00N 40°07' E 025°32'4 8.3
2017-Oct-06 00:30N 40°10' E 025°28'4 8.6
2017-Oct-05 23:59N 40°13' E 025°24'4 8.7
2017-Oct-05 23:30N 40°17' E 025°21'5 9.2
2017-Oct-05 23:00N 40°20' E 025°17'5 9.1
2017-Oct-05 22:30N 40°24' E 025°13'4 9.0
2017-Oct-05 22:00N 40°27' E 025°09'4 8.9
2017-Oct-05 21:30N 40°30' E 025°05'5 9.4
2017-Oct-05 21:00N 40°34' E 025°01'5 9.4
2017-Oct-05 20:30N 40°37' E 024°57'510.0
2017-Oct-05 20:00N 40°41' E 024°53'510.1
2017-Oct-05 19:30N 40°45' E 024°49'510.0
2017-Oct-05 19:00N 40°49' E 024°45'  

Dump ship's entire track history